Detall de PIREP

Printer-friendly versionPDF version

[2008/09/26 21:55:00]
Flight IATA:CT3114
Pilot Number:037
Company ICAO:CAT
Aircraft Type:AT72/F
PAX:21
Departing Airport: LEBL
Destination Airport: LEVC
Alternate Airport:LEPA
Online: VATSIM
Route:LOTOS B28 SOPET
Flight Level:FL170
No Slew and time accel
No pause
Crash detect
Detect pilot in Cockpit between each 30 and 45 minutes
21:55 Zero fuel Weight: 40068 Lbs, Fuel Weight: 3348 Lbs
21:55 VATSIM:LEBL 262130Z 35006KT 9999 SCT025 BKN090 16/13 Q1024 NOSIG
21:55 VATSIM:LEVC 262100Z 31003KT 9999 SCT030 17/15 Q1022 NOSIG
21:57 Parking Brakes off
22:02 Take-off
22:02 Take off Weight: 43333 Lbs
22:02 Wind: 353? @ 006 Knots Heading: 200?
22:02 POS N41? 17? 46?? E002? 05? 19??
22:02 Flaps:1 at 126 Knots
22:02 Gear Up: 127 Knots
22:03 Flaps:0 at 191 Knots
22:16 TOC
22:16 Fuel Weight: 2703 Lb
22:17 Wind:053?@019 Knots Heading: 242? Ground Speed: 211 Knots Altitude 17332
ft
22:28 TOD
22:28 Fuel Weight: 2283 Lb
22:32 Wind:004?@008 Knots Heading: 227? Ground Speed: 247 Knots Altitude 11591 ft
22:44 Gear Down: 148 Knots
22:45 Flaps:1 at 126 Knots
22:46 Flaps:2 at 135 Knots
22:47 Wind:310?@008 Knots Heading: 290? Ground Speed: 117 Knots Altitude 3034 ft
22:49 TouchDown:Rate -302 ft/min Speed: 88 Knots
22:49 VATSIM:LEVC 262230Z 31005KT 9999 FEW030 16/14 Q1022 NOSIG
22:49 Land
22:49 Wind:313?@006 Knots
22:49 Heading: 294?
22:49 Flight Duration: 00:47
22:49 Landing Weight: 42094 Lbs
22:49 POS N39? 29? 17?? W000? 28? 41??
22:51 Parking brakes on
22:51 Block to Block Duration: 00:54
22:51 Final Fuel: 2008 Lbls
22:51 Spent Fuel: 1340 Lbls
22:51 Flight Length: 113 NM
22:51 TOD Land Length: 43 NM

Exportar CSV

Powered by Drupal - Modified by Danger4k